sensor_id;sensor_type;location;lat;lon;timestamp;P1;durP1;ratioP1;P2;durP2;ratioP2
41253;SDS011;26987;59.928;30.306;2023-07-16T00:00:27;2.78;;;1.65;;
41253;SDS011;26987;59.928;30.306;2023-07-16T00:02:57;5.22;;;1.60;;
41253;SDS011;26987;59.928;30.306;2023-07-16T00:05:24;3.33;;;1.73;;
41253;SDS011;26987;59.928;30.306;2023-07-16T00:07:52;6.35;;;1.85;;
41253;SDS011;26987;59.928;30.306;2023-07-16T00:10:20;7.53;;;2.00;;
41253;SDS011;26987;59.928;30.306;2023-07-16T00:12:48;9.20;;;2.33;;
41253;SDS011;26987;59.928;30.306;2023-07-16T00:15:17;3.13;;;1.65;;
41253;SDS011;26987;59.928;30.306;2023-07-16T00:17:45;6.93;;;2.22;;
41253;SDS011;26987;59.928;30.306;2023-07-16T00:20:13;4.50;;;1.95;;
41253;SDS011;26987;59.928;30.306;2023-07-16T00:22:41;7.00;;;1.80;;
41253;SDS011;26987;59.928;30.306;2023-07-16T00:25:09;7.70;;;2.08;;
41253;SDS011;26987;59.928;30.306;2023-07-16T00:27:36;5.43;;;1.70;;
41253;SDS011;26987;59.928;30.306;2023-07-16T00:30:05;3.88;;;1.65;;
41253;SDS011;26987;59.928;30.306;2023-07-16T00:32:35;5.28;;;1.85;;
41253;SDS011;26987;59.928;30.306;2023-07-16T00:35:03;5.10;;;2.00;;
41253;SDS011;26987;59.928;30.306;2023-07-16T00:37:32;4.45;;;2.03;;
41253;SDS011;26987;59.928;30.306;2023-07-16T00:40:01;5.10;;;2.38;;
41253;SDS011;26987;59.928;30.306;2023-07-16T00:42:30;4.25;;;1.73;;
41253;SDS011;26987;59.928;30.306;2023-07-16T00:44:58;2.67;;;1.58;;
41253;SDS011;26987;59.928;30.306;2023-07-16T00:47:25;7.00;;;1.85;;
41253;SDS011;26987;59.928;30.306;2023-07-16T00:49:55;4.95;;;2.17;;
41253;SDS011;26987;59.928;30.306;2023-07-16T00:52:22;3.90;;;1.88;;
41253;SDS011;26987;59.928;30.306;2023-07-16T00:54:50;4.10;;;2.00;;
41253;SDS011;26987;59.928;30.306;2023-07-16T00:57:18;5.53;;;2.13;;
41253;SDS011;26987;59.928;30.306;2023-07-16T00:59:46;4.82;;;2.10;;
41253;SDS011;26987;59.928;30.306;2023-07-16T01:02:16;3.40;;;1.60;;
41253;SDS011;26987;59.928;30.306;2023-07-16T01:04:44;5.50;;;1.75;;
41253;SDS011;26987;59.928;30.306;2023-07-16T01:07:14;3.15;;;2.00;;
41253;SDS011;26987;59.928;30.306;2023-07-16T01:09:43;3.88;;;1.80;;
41253;SDS011;26987;59.928;30.306;2023-07-16T01:12:12;4.65;;;2.17;;
41253;SDS011;26987;59.928;30.306;2023-07-16T01:14:40;4.30;;;2.40;;
41253;SDS011;26987;59.928;30.306;2023-07-16T01:17:09;9.32;;;2.30;;
41253;SDS011;26987;59.928;30.306;2023-07-16T01:19:36;4.97;;;2.65;;
41253;SDS011;26987;59.928;30.306;2023-07-16T01:22:10;4.78;;;1.95;;
41253;SDS011;26987;59.928;30.306;2023-07-16T01:25:10;5.13;;;2.55;;
41253;SDS011;26987;59.928;30.306;2023-07-16T01:28:06;4.57;;;1.98;;
41253;SDS011;26987;59.928;30.306;2023-07-16T01:30:50;4.13;;;1.90;;
41253;SDS011;26987;59.928;30.306;2023-07-16T01:33:22;4.03;;;1.77;;
41253;SDS011;26987;59.928;30.306;2023-07-16T01:35:50;4.47;;;1.92;;
41253;SDS011;26987;59.928;30.306;2023-07-16T01:38:19;4.35;;;2.00;;
41253;SDS011;26987;59.928;30.306;2023-07-16T01:40:47;8.07;;;2.08;;
41253;SDS011;26987;59.928;30.306;2023-07-16T01:43:15;3.70;;;1.98;;
41253;SDS011;26987;59.928;30.306;2023-07-16T01:45:42;5.00;;;1.80;;
41253;SDS011;26987;59.928;30.306;2023-07-16T01:48:16;6.80;;;2.05;;
41253;SDS011;26987;59.928;30.306;2023-07-16T01:50:52;5.10;;;2.33;;
41253;SDS011;26987;59.928;30.306;2023-07-16T01:53:20;6.13;;;1.80;;
41253;SDS011;26987;59.928;30.306;2023-07-16T01:55:48;6.75;;;1.67;;
41253;SDS011;26987;59.928;30.306;2023-07-16T01:58:16;6.38;;;1.85;;
41253;SDS011;26987;59.928;30.306;2023-07-16T02:00:44;3.90;;;1.52;;
41253;SDS011;26987;59.928;30.306;2023-07-16T02:03:13;6.45;;;1.98;;
41253;SDS011;26987;59.928;30.306;2023-07-16T02:05:41;4.10;;;1.80;;
41253;SDS011;26987;59.928;30.306;2023-07-16T02:08:10;2.75;;;1.83;;
41253;SDS011;26987;59.928;30.306;2023-07-16T02:10:38;3.50;;;1.63;;
41253;SDS011;26987;59.928;30.306;2023-07-16T02:13:05;3.33;;;1.75;;
41253;SDS011;26987;59.928;30.306;2023-07-16T02:15:33;4.60;;;1.42;;
41253;SDS011;26987;59.928;30.306;2023-07-16T02:18:03;2.63;;;1.10;;
41253;SDS011;26987;59.928;30.306;2023-07-16T02:20:36;4.18;;;1.30;;
41253;SDS011;26987;59.928;30.306;2023-07-16T02:23:04;5.50;;;1.40;;
41253;SDS011;26987;59.928;30.306;2023-07-16T02:25:32;5.00;;;1.10;;
41253;SDS011;26987;59.928;30.306;2023-07-16T02:27:59;6.88;;;1.60;;
41253;SDS011;26987;59.928;30.306;2023-07-16T02:30:30;4.18;;;1.20;;
41253;SDS011;26987;59.928;30.306;2023-07-16T02:32:58;4.18;;;1.17;;
41253;SDS011;26987;59.928;30.306;2023-07-16T02:35:27;3.83;;;1.13;;
41253;SDS011;26987;59.928;30.306;2023-07-16T02:37:56;3.45;;;1.00;;
41253;SDS011;26987;59.928;30.306;2023-07-16T02:40:26;6.97;;;1.38;;
41253;SDS011;26987;59.928;30.306;2023-07-16T02:42:54;7.22;;;1.23;;
41253;SDS011;26987;59.928;30.306;2023-07-16T02:45:21;3.88;;;1.50;;
41253;SDS011;26987;59.928;30.306;2023-07-16T02:47:49;4.05;;;1.13;;
41253;SDS011;26987;59.928;30.306;2023-07-16T02:50:17;5.45;;;1.05;;
41253;SDS011;26987;59.928;30.306;2023-07-16T02:52:45;2.15;;;1.00;;
41253;SDS011;26987;59.928;30.306;2023-07-16T02:55:14;1.60;;;0.90;;
41253;SDS011;26987;59.928;30.306;2023-07-16T02:57:42;3.30;;;1.35;;
41253;SDS011;26987;59.928;30.306;2023-07-16T03:00:10;3.72;;;1.08;;
41253;SDS011;26987;59.928;30.306;2023-07-16T03:02:38;1.77;;;0.80;;
41253;SDS011;26987;59.928;30.306;2023-07-16T03:05:06;5.88;;;1.23;;
41253;SDS011;26987;59.928;30.306;2023-07-16T03:07:35;1.92;;;1.00;;
41253;SDS011;26987;59.928;30.306;2023-07-16T03:10:03;2.17;;;0.70;;
41253;SDS011;26987;59.928;30.306;2023-07-16T03:12:32;3.40;;;1.45;;
41253;SDS011;26987;59.928;30.306;2023-07-16T03:15:00;2.15;;;1.08;;
41253;SDS011;26987;59.928;30.306;2023-07-16T03:17:30;1.80;;;0.88;;
41253;SDS011;26987;59.928;30.306;2023-07-16T03:19:58;1.70;;;0.90;;
41253;SDS011;26987;59.928;30.306;2023-07-16T03:22:26;3.70;;;1.20;;
41253;SDS011;26987;59.928;30.306;2023-07-16T03:24:54;2.50;;;1.15;;
41253;SDS011;26987;59.928;30.306;2023-07-16T03:27:22;5.50;;;1.10;;
41253;SDS011;26987;59.928;30.306;2023-07-16T03:29:57;1.70;;;0.60;;
41253;SDS011;26987;59.928;30.306;2023-07-16T03:32:25;3.45;;;1.05;;
41253;SDS011;26987;59.928;30.306;2023-07-16T03:34:53;2.42;;;0.82;;
41253;SDS011;26987;59.928;30.306;2023-07-16T03:37:21;2.28;;;1.33;;
41253;SDS011;26987;59.928;30.306;2023-07-16T03:39:49;1.25;;;0.77;;
41253;SDS011;26987;59.928;30.306;2023-07-16T03:42:17;2.35;;;0.88;;
41253;SDS011;26987;59.928;30.306;2023-07-16T03:44:46;2.25;;;1.02;;
41253;SDS011;26987;59.928;30.306;2023-07-16T03:47:15;2.65;;;1.00;;
41253;SDS011;26987;59.928;30.306;2023-07-16T03:49:43;2.60;;;0.90;;
41253;SDS011;26987;59.928;30.306;2023-07-16T03:52:11;2.10;;;0.73;;
41253;SDS011;26987;59.928;30.306;2023-07-16T03:54:39;1.95;;;0.98;;
41253;SDS011;26987;59.928;30.306;2023-07-16T03:57:06;1.63;;;0.75;;
41253;SDS011;26987;59.928;30.306;2023-07-16T03:59:34;3.50;;;1.00;;
41253;SDS011;26987;59.928;30.306;2023-07-16T04:02:04;1.65;;;0.90;;
41253;SDS011;26987;59.928;30.306;2023-07-16T04:04:33;2.50;;;0.90;;
41253;SDS011;26987;59.928;30.306;2023-07-16T04:07:01;2.33;;;1.05;;
41253;SDS011;26987;59.928;30.306;2023-07-16T04:09:29;2.55;;;1.17;;
41253;SDS011;26987;59.928;30.306;2023-07-16T04:11:56;2.15;;;0.93;;
41253;SDS011;26987;59.928;30.306;2023-07-16T04:14:24;2.17;;;1.15;;
41253;SDS011;26987;59.928;30.306;2023-07-16T04:16:52;3.55;;;1.42;;
41253;SDS011;26987;59.928;30.306;2023-07-16T04:19:20;2.50;;;0.90;;
41253;SDS011;26987;59.928;30.306;2023-07-16T04:21:49;2.20;;;0.73;;
41253;SDS011;26987;59.928;30.306;2023-07-16T04:24:17;3.28;;;1.15;;
41253;SDS011;26987;59.928;30.306;2023-07-16T04:26:45;2.55;;;0.82;;
41253;SDS011;26987;59.928;30.306;2023-07-16T04:29:13;1.70;;;0.70;;
41253;SDS011;26987;59.928;30.306;2023-07-16T04:31:41;1.98;;;0.88;;
41253;SDS011;26987;59.928;30.306;2023-07-16T04:34:09;1.85;;;0.82;;
41253;SDS011;26987;59.928;30.306;2023-07-16T04:36:37;4.47;;;0.95;;
41253;SDS011;26987;59.928;30.306;2023-07-16T04:39:07;3.90;;;1.23;;
41253;SDS011;26987;59.928;30.306;2023-07-16T04:41:34;1.67;;;0.80;;
41253;SDS011;26987;59.928;30.306;2023-07-16T04:44:02;2.72;;;0.82;;
41253;SDS011;26987;59.928;30.306;2023-07-16T04:46:30;1.10;;;0.90;;
41253;SDS011;26987;59.928;30.306;2023-07-16T04:48:58;2.20;;;0.75;;
41253;SDS011;26987;59.928;30.306;2023-07-16T04:51:26;2.30;;;1.10;;
41253;SDS011;26987;59.928;30.306;2023-07-16T04:53:54;4.22;;;1.10;;
41253;SDS011;26987;59.928;30.306;2023-07-16T04:56:23;1.67;;;0.85;;
41253;SDS011;26987;59.928;30.306;2023-07-16T04:58:51;2.45;;;0.75;;
41253;SDS011;26987;59.928;30.306;2023-07-16T05:01:19;2.10;;;0.65;;
41253;SDS011;26987;59.928;30.306;2023-07-16T05:03:47;1.92;;;1.02;;
41253;SDS011;26987;59.928;30.306;2023-07-16T05:06:15;1.80;;;0.88;;
41253;SDS011;26987;59.928;30.306;2023-07-16T05:08:43;3.40;;;1.13;;
41253;SDS011;26987;59.928;30.306;2023-07-16T05:11:11;2.30;;;0.90;;
41253;SDS011;26987;59.928;30.306;2023-07-16T05:13:41;1.98;;;0.80;;
41253;SDS011;26987;59.928;30.306;2023-07-16T05:16:09;1.95;;;0.80;;
41253;SDS011;26987;59.928;30.306;2023-07-16T05:18:36;2.55;;;0.80;;
41253;SDS011;26987;59.928;30.306;2023-07-16T05:21:04;3.92;;;1.13;;
41253;SDS011;26987;59.928;30.306;2023-07-16T05:23:32;2.55;;;0.82;;
41253;SDS011;26987;59.928;30.306;2023-07-16T05:26:00;2.35;;;1.02;;
41253;SDS011;26987;59.928;30.306;2023-07-16T05:28:28;2.47;;;0.90;;
41253;SDS011;26987;59.928;30.306;2023-07-16T05:31:00;4.90;;;1.50;;
41253;SDS011;26987;59.928;30.306;2023-07-16T05:33:29;1.70;;;1.00;;
41253;SDS011;26987;59.928;30.306;2023-07-16T05:35:57;2.83;;;0.98;;
41253;SDS011;26987;59.928;30.306;2023-07-16T05:38:24;3.92;;;1.20;;
41253;SDS011;26987;59.928;30.306;2023-07-16T05:40:52;2.55;;;1.15;;
41253;SDS011;26987;59.928;30.306;2023-07-16T05:43:20;1.77;;;0.70;;
41253;SDS011;26987;59.928;30.306;2023-07-16T05:45:48;5.20;;;1.10;;
41253;SDS011;26987;59.928;30.306;2023-07-16T05:48:17;5.43;;;1.30;;
41253;SDS011;26987;59.928;30.306;2023-07-16T05:50:45;5.47;;;1.23;;
41253;SDS011;26987;59.928;30.306;2023-07-16T05:53:13;4.72;;;1.00;;
41253;SDS011;26987;59.928;30.306;2023-07-16T05:55:40;3.40;;;1.33;;
41253;SDS011;26987;59.928;30.306;2023-07-16T05:58:08;3.20;;;1.00;;
41253;SDS011;26987;59.928;30.306;2023-07-16T06:00:36;3.47;;;1.02;;
41253;SDS011;26987;59.928;30.306;2023-07-16T06:03:05;3.92;;;1.00;;
41253;SDS011;26987;59.928;30.306;2023-07-16T06:05:34;6.05;;;1.25;;
41253;SDS011;26987;59.928;30.306;2023-07-16T06:08:03;12.75;;;1.30;;
41253;SDS011;26987;59.928;30.306;2023-07-16T06:10:33;3.35;;;1.40;;
41253;SDS011;26987;59.928;30.306;2023-07-16T06:13:01;2.15;;;0.90;;
41253;SDS011;26987;59.928;30.306;2023-07-16T06:15:29;4.78;;;1.55;;
41253;SDS011;26987;59.928;30.306;2023-07-16T06:17:57;2.67;;;1.10;;
41253;SDS011;26987;59.928;30.306;2023-07-16T06:20:25;2.83;;;1.10;;
41253;SDS011;26987;59.928;30.306;2023-07-16T06:22:54;3.03;;;1.02;;
41253;SDS011;26987;59.928;30.306;2023-07-16T06:25:22;5.32;;;1.38;;
41253;SDS011;26987;59.928;30.306;2023-07-16T06:27:49;2.97;;;1.48;;
41253;SDS011;26987;59.928;30.306;2023-07-16T06:30:17;6.65;;;1.13;;
41253;SDS011;26987;59.928;30.306;2023-07-16T06:32:45;4.05;;;1.30;;
41253;SDS011;26987;59.928;30.306;2023-07-16T06:35:13;5.43;;;1.00;;
41253;SDS011;26987;59.928;30.306;2023-07-16T06:37:41;2.35;;;1.23;;
41253;SDS011;26987;59.928;30.306;2023-07-16T06:40:11;3.92;;;0.93;;
41253;SDS011;26987;59.928;30.306;2023-07-16T06:42:39;4.22;;;1.35;;
41253;SDS011;26987;59.928;30.306;2023-07-16T06:45:07;2.70;;;1.48;;
41253;SDS011;26987;59.928;30.306;2023-07-16T06:47:35;4.65;;;1.75;;
41253;SDS011;26987;59.928;30.306;2023-07-16T06:50:04;4.47;;;1.15;;
41253;SDS011;26987;59.928;30.306;2023-07-16T06:52:32;7.20;;;1.50;;
41253;SDS011;26987;59.928;30.306;2023-07-16T06:55:00;5.45;;;1.25;;
41253;SDS011;26987;59.928;30.306;2023-07-16T06:57:29;2.38;;;1.30;;
41253;SDS011;26987;59.928;30.306;2023-07-16T06:59:57;2.95;;;1.00;;
41253;SDS011;26987;59.928;30.306;2023-07-16T07:02:25;5.60;;;1.60;;
41253;SDS011;26987;59.928;30.306;2023-07-16T07:04:53;6.70;;;1.30;;
41253;SDS011;26987;59.928;30.306;2023-07-16T07:07:21;6.93;;;0.90;;
41253;SDS011;26987;59.928;30.306;2023-07-16T07:09:49;3.88;;;1.30;;
41253;SDS011;26987;59.928;30.306;2023-07-16T07:12:16;3.97;;;1.40;;
41253;SDS011;26987;59.928;30.306;2023-07-16T07:14:46;2.67;;;1.10;;
41253;SDS011;26987;59.928;30.306;2023-07-16T07:17:14;3.00;;;1.20;;
41253;SDS011;26987;59.928;30.306;2023-07-16T07:19:42;3.60;;;1.60;;
41253;SDS011;26987;59.928;30.306;2023-07-16T07:22:11;3.10;;;1.20;;
41253;SDS011;26987;59.928;30.306;2023-07-16T07:24:39;4.47;;;1.13;;
41253;SDS011;26987;59.928;30.306;2023-07-16T07:27:07;2.30;;;1.23;;
41253;SDS011;26987;59.928;30.306;2023-07-16T07:29:35;4.65;;;1.45;;
41253;SDS011;26987;59.928;30.306;2023-07-16T07:32:04;4.38;;;1.27;;
41253;SDS011;26987;59.928;30.306;2023-07-16T07:34:33;4.43;;;1.17;;
41253;SDS011;26987;59.928;30.306;2023-07-16T07:37:01;6.70;;;1.70;;
41253;SDS011;26987;59.928;30.306;2023-07-16T07:39:28;3.28;;;1.42;;
41253;SDS011;26987;59.928;30.306;2023-07-16T07:41:56;3.60;;;1.20;;
41253;SDS011;26987;59.928;30.306;2023-07-16T07:44:24;2.53;;;1.10;;
41253;SDS011;26987;59.928;30.306;2023-07-16T07:46:52;3.50;;;1.33;;
41253;SDS011;26987;59.928;30.306;2023-07-16T07:49:21;3.28;;;1.38;;
41253;SDS011;26987;59.928;30.306;2023-07-16T07:51:49;2.00;;;1.05;;
41253;SDS011;26987;59.928;30.306;2023-07-16T07:54:17;2.60;;;1.27;;
41253;SDS011;26987;59.928;30.306;2023-07-16T07:56:45;6.82;;;1.20;;
41253;SDS011;26987;59.928;30.306;2023-07-16T07:59:12;3.13;;;1.20;;
41253;SDS011;26987;59.928;30.306;2023-07-16T08:01:40;4.38;;;1.52;;
41253;SDS011;26987;59.928;30.306;2023-07-16T08:04:08;4.43;;;1.30;;
41253;SDS011;26987;59.928;30.306;2023-07-16T08:06:38;2.92;;;1.40;;
41253;SDS011;26987;59.928;30.306;2023-07-16T08:09:05;2.80;;;1.10;;
41253;SDS011;26987;59.928;30.306;2023-07-16T08:11:33;1.67;;;1.00;;
41253;SDS011;26987;59.928;30.306;2023-07-16T08:14:01;4.22;;;1.80;;
41253;SDS011;26987;59.928;30.306;2023-07-16T08:16:29;3.00;;;1.35;;
41253;SDS011;26987;59.928;30.306;2023-07-16T08:18:57;2.25;;;1.15;;
41253;SDS011;26987;59.928;30.306;2023-07-16T08:21:25;2.63;;;1.10;;
41253;SDS011;26987;59.928;30.306;2023-07-16T08:23:54;7.28;;;1.40;;
41253;SDS011;26987;59.928;30.306;2023-07-16T08:26:22;2.28;;;1.10;;
41253;SDS011;26987;59.928;30.306;2023-07-16T08:28:50;2.70;;;1.63;;
41253;SDS011;26987;59.928;30.306;2023-07-16T08:31:18;4.55;;;1.17;;
41253;SDS011;26987;59.928;30.306;2023-07-16T08:33:47;3.58;;;1.63;;
41253;SDS011;26987;59.928;30.306;2023-07-16T08:36:15;3.75;;;1.20;;
41253;SDS011;26987;59.928;30.306;2023-07-16T08:38:43;3.42;;;1.10;;
41253;SDS011;26987;59.928;30.306;2023-07-16T08:41:12;5.07;;;0.90;;
41253;SDS011;26987;59.928;30.306;2023-07-16T08:43:41;7.80;;;1.67;;
41253;SDS011;26987;59.928;30.306;2023-07-16T08:46:12;2.05;;;1.10;;
41253;SDS011;26987;59.928;30.306;2023-07-16T08:48:40;6.38;;;1.50;;
41253;SDS011;26987;59.928;30.306;2023-07-16T08:51:09;2.00;;;0.90;;
41253;SDS011;26987;59.928;30.306;2023-07-16T08:53:38;4.85;;;1.52;;
41253;SDS011;26987;59.928;30.306;2023-07-16T08:56:05;4.40;;;1.38;;
41253;SDS011;26987;59.928;30.306;2023-07-16T08:58:35;6.13;;;1.55;;
41253;SDS011;26987;59.928;30.306;2023-07-16T09:01:04;3.90;;;1.48;;
41253;SDS011;26987;59.928;30.306;2023-07-16T09:03:33;7.57;;;1.45;;
41253;SDS011;26987;59.928;30.306;2023-07-16T09:06:01;6.57;;;1.52;;
41253;SDS011;26987;59.928;30.306;2023-07-16T09:08:29;3.95;;;1.65;;
41253;SDS011;26987;59.928;30.306;2023-07-16T09:10:57;5.07;;;1.50;;
41253;SDS011;26987;59.928;30.306;2023-07-16T09:13:25;4.60;;;0.90;;
41253;SDS011;26987;59.928;30.306;2023-07-16T09:15:56;2.92;;;1.38;;
41253;SDS011;26987;59.928;30.306;2023-07-16T09:18:26;3.22;;;0.80;;
41253;SDS011;26987;59.928;30.306;2023-07-16T09:20:55;2.22;;;0.77;;
41253;SDS011;26987;59.928;30.306;2023-07-16T09:23:26;1.67;;;0.70;;
41253;SDS011;26987;59.928;30.306;2023-07-16T09:25:56;2.80;;;0.80;;
41253;SDS011;26987;59.928;30.306;2023-07-16T09:28:24;4.57;;;1.10;;
41253;SDS011;26987;59.928;30.306;2023-07-16T09:30:52;2.38;;;0.77;;
41253;SDS011;26987;59.928;30.306;2023-07-16T09:33:22;2.28;;;1.05;;
41253;SDS011;26987;59.928;30.306;2023-07-16T09:35:52;4.90;;;1.10;;
41253;SDS011;26987;59.928;30.306;2023-07-16T09:38:19;2.15;;;0.70;;
41253;SDS011;26987;59.928;30.306;2023-07-16T09:40:50;1.55;;;0.70;;
41253;SDS011;26987;59.928;30.306;2023-07-16T09:43:19;5.32;;;0.93;;
41253;SDS011;26987;59.928;30.306;2023-07-16T09:45:47;3.58;;;1.10;;
41253;SDS011;26987;59.928;30.306;2023-07-16T09:48:16;1.73;;;0.70;;
41253;SDS011;26987;59.928;30.306;2023-07-16T09:50:46;6.95;;;0.77;;
41253;SDS011;26987;59.928;30.306;2023-07-16T09:53:21;4.32;;;0.85;;
41253;SDS011;26987;59.928;30.306;2023-07-16T09:55:49;1.25;;;0.50;;
41253;SDS011;26987;59.928;30.306;2023-07-16T09:58:20;3.42;;;0.70;;
41253;SDS011;26987;59.928;30.306;2023-07-16T10:00:49;8.63;;;0.80;;
41253;SDS011;26987;59.928;30.306;2023-07-16T10:03:17;1.67;;;0.70;;
41253;SDS011;26987;59.928;30.306;2023-07-16T10:05:47;3.40;;;0.70;;
41253;SDS011;26987;59.928;30.306;2023-07-16T10:08:16;2.08;;;0.82;;
41253;SDS011;26987;59.928;30.306;2023-07-16T10:10:45;1.23;;;0.80;;
41253;SDS011;26987;59.928;30.306;2023-07-16T10:13:14;2.45;;;0.82;;
41253;SDS011;26987;59.928;30.306;2023-07-16T10:15:51;2.63;;;1.10;;
41253;SDS011;26987;59.928;30.306;2023-07-16T10:18:24;1.50;;;0.80;;
41253;SDS011;26987;59.928;30.306;2023-07-16T10:21:01;2.35;;;0.70;;
41253;SDS011;26987;59.928;30.306;2023-07-16T10:23:38;5.97;;;1.05;;
41253;SDS011;26987;59.928;30.306;2023-07-16T10:26:07;2.72;;;0.90;;
41253;SDS011;26987;59.928;30.306;2023-07-16T10:28:36;2.10;;;0.88;;
41253;SDS011;26987;59.928;30.306;2023-07-16T10:31:05;1.92;;;0.63;;
41253;SDS011;26987;59.928;30.306;2023-07-16T10:33:44;3.58;;;0.90;;
41253;SDS011;26987;59.928;30.306;2023-07-16T10:36:17;1.48;;;0.80;;
41253;SDS011;26987;59.928;30.306;2023-07-16T10:38:46;2.13;;;0.80;;
41253;SDS011;26987;59.928;30.306;2023-07-16T10:41:13;2.55;;;0.70;;
41253;SDS011;26987;59.928;30.306;2023-07-16T10:43:42;1.75;;;0.82;;
41253;SDS011;26987;59.928;30.306;2023-07-16T10:46:10;2.47;;;1.00;;
41253;SDS011;26987;59.928;30.306;2023-07-16T10:48:38;2.15;;;0.70;;
41253;SDS011;26987;59.928;30.306;2023-07-16T10:51:15;2.42;;;1.27;;
41253;SDS011;26987;59.928;30.306;2023-07-16T10:53:43;2.10;;;1.00;;
41253;SDS011;26987;59.928;30.306;2023-07-16T10:56:11;1.50;;;0.80;;
41253;SDS011;26987;59.928;30.306;2023-07-16T10:58:39;2.65;;;0.75;;
41253;SDS011;26987;59.928;30.306;2023-07-16T11:01:08;2.60;;;0.90;;
41253;SDS011;26987;59.928;30.306;2023-07-16T11:03:36;3.92;;;1.10;;
41253;SDS011;26987;59.928;30.306;2023-07-16T11:06:05;1.60;;;0.90;;
41253;SDS011;26987;59.928;30.306;2023-07-16T11:08:35;2.95;;;0.77;;
41253;SDS011;26987;59.928;30.306;2023-07-16T11:11:02;3.53;;;0.80;;
41253;SDS011;26987;59.928;30.306;2023-07-16T11:13:31;1.83;;;0.75;;
41253;SDS011;26987;59.928;30.306;2023-07-16T11:16:06;2.08;;;0.60;;
41253;SDS011;26987;59.928;30.306;2023-07-16T11:18:34;1.13;;;0.63;;
41253;SDS011;26987;59.928;30.306;2023-07-16T11:21:02;7.53;;;1.35;;
41253;SDS011;26987;59.928;30.306;2023-07-16T11:23:34;1.83;;;1.08;;
41253;SDS011;26987;59.928;30.306;2023-07-16T11:26:02;0.93;;;0.68;;
41253;SDS011;26987;59.928;30.306;2023-07-16T11:28:35;3.67;;;1.00;;
41253;SDS011;26987;59.928;30.306;2023-07-16T11:31:09;2.33;;;0.70;;
41253;SDS011;26987;59.928;30.306;2023-07-16T11:33:38;2.83;;;1.17;;
41253;SDS011;26987;59.928;30.306;2023-07-16T11:36:09;1.20;;;0.80;;
41253;SDS011;26987;59.928;30.306;2023-07-16T11:38:39;2.60;;;0.85;;
41253;SDS011;26987;59.928;30.306;2023-07-16T11:41:07;13.45;;;1.25;;
41253;SDS011;26987;59.928;30.306;2023-07-16T11:43:35;2.28;;;1.02;;
41253;SDS011;26987;59.928;30.306;2023-07-16T11:46:05;3.33;;;0.80;;
41253;SDS011;26987;59.928;30.306;2023-07-16T11:48:41;2.20;;;0.95;;
41253;SDS011;26987;59.928;30.306;2023-07-16T11:51:09;3.10;;;1.15;;
41253;SDS011;26987;59.928;30.306;2023-07-16T11:53:37;1.60;;;0.98;;
41253;SDS011;26987;59.928;30.306;2023-07-16T11:56:06;1.13;;;0.75;;
41253;SDS011;26987;59.928;30.306;2023-07-16T11:58:35;2.50;;;0.93;;
41253;SDS011;26987;59.928;30.306;2023-07-16T12:01:03;2.55;;;0.98;;
41253;SDS011;26987;59.928;30.306;2023-07-16T12:03:31;1.85;;;0.82;;
41253;SDS011;26987;59.928;30.306;2023-07-16T12:05:59;1.98;;;0.98;;
41253;SDS011;26987;59.928;30.306;2023-07-16T12:08:26;1.75;;;0.73;;
41253;SDS011;26987;59.928;30.306;2023-07-16T12:10:55;1.50;;;0.70;;
41253;SDS011;26987;59.928;30.306;2023-07-16T12:13:25;1.65;;;0.75;;
41253;SDS011;26987;59.928;30.306;2023-07-16T12:15:52;2.08;;;0.52;;
41253;SDS011;26987;59.928;30.306;2023-07-16T12:18:20;0.90;;;0.57;;
41253;SDS011;26987;59.928;30.306;2023-07-16T12:20:48;3.60;;;0.70;;
41253;SDS011;26987;59.928;30.306;2023-07-16T12:23:16;3.75;;;1.00;;
41253;SDS011;26987;59.928;30.306;2023-07-16T12:25:44;6.82;;;0.70;;
41253;SDS011;26987;59.928;30.306;2023-07-16T12:28:12;4.57;;;0.70;;
41253;SDS011;26987;59.928;30.306;2023-07-16T12:30:41;1.70;;;0.50;;
41253;SDS011;26987;59.928;30.306;2023-07-16T12:33:09;2.08;;;0.75;;
41253;SDS011;26987;59.928;30.306;2023-07-16T12:35:37;1.05;;;0.50;;
41253;SDS011;26987;59.928;30.306;2023-07-16T12:38:04;2.10;;;0.70;;
41253;SDS011;26987;59.928;30.306;2023-07-16T12:40:32;1.58;;;0.70;;
41253;SDS011;26987;59.928;30.306;2023-07-16T12:43:05;0.95;;;0.52;;
41253;SDS011;26987;59.928;30.306;2023-07-16T12:45:33;6.70;;;0.93;;
41253;SDS011;26987;59.928;30.306;2023-07-16T12:48:03;2.78;;;0.68;;
41253;SDS011;26987;59.928;30.306;2023-07-16T12:50:31;2.05;;;0.60;;
41253;SDS011;26987;59.928;30.306;2023-07-16T12:52:59;1.50;;;0.73;;
41253;SDS011;26987;59.928;30.306;2023-07-16T12:55:27;0.88;;;0.75;;
41253;SDS011;26987;59.928;30.306;2023-07-16T12:57:57;1.13;;;0.57;;
41253;SDS011;26987;59.928;30.306;2023-07-16T13:00:25;3.30;;;0.93;;
41253;SDS011;26987;59.928;30.306;2023-07-16T13:02:53;2.72;;;0.90;;
41253;SDS011;26987;59.928;30.306;2023-07-16T13:05:22;1.83;;;0.80;;
41253;SDS011;26987;59.928;30.306;2023-07-16T13:07:50;3.92;;;0.93;;
41253;SDS011;26987;59.928;30.306;2023-07-16T13:10:18;2.40;;;1.15;;
41253;SDS011;26987;59.928;30.306;2023-07-16T13:12:46;3.78;;;1.40;;
41253;SDS011;26987;59.928;30.306;2023-07-16T13:15:13;3.78;;;1.40;;
41253;SDS011;26987;59.928;30.306;2023-07-16T13:17:41;3.03;;;1.10;;
41253;SDS011;26987;59.928;30.306;2023-07-16T13:20:12;4.90;;;0.85;;
41253;SDS011;26987;59.928;30.306;2023-07-16T13:22:42;0.90;;;0.63;;
41253;SDS011;26987;59.928;30.306;2023-07-16T13:25:09;3.53;;;1.20;;
41253;SDS011;26987;59.928;30.306;2023-07-16T13:27:37;1.50;;;0.93;;
41253;SDS011;26987;59.928;30.306;2023-07-16T13:30:05;2.40;;;1.08;;
41253;SDS011;26987;59.928;30.306;2023-07-16T13:32:34;1.25;;;0.75;;
41253;SDS011;26987;59.928;30.306;2023-07-16T13:35:02;1.80;;;0.85;;
41253;SDS011;26987;59.928;30.306;2023-07-16T13:37:30;6.43;;;1.20;;
41253;SDS011;26987;59.928;30.306;2023-07-16T13:39:59;0.85;;;0.60;;
41253;SDS011;26987;59.928;30.306;2023-07-16T13:42:27;3.08;;;1.00;;
41253;SDS011;26987;59.928;30.306;2023-07-16T13:44:55;3.70;;;0.98;;
41253;SDS011;26987;59.928;30.306;2023-07-16T13:47:23;4.28;;;1.38;;
41253;SDS011;26987;59.928;30.306;2023-07-16T13:49:50;5.72;;;1.38;;
41253;SDS011;26987;59.928;30.306;2023-07-16T13:52:19;3.50;;;1.20;;
41253;SDS011;26987;59.928;30.306;2023-07-16T13:54:46;7.30;;;1.20;;
41253;SDS011;26987;59.928;30.306;2023-07-16T13:57:16;5.07;;;1.10;;
41253;SDS011;26987;59.928;30.306;2023-07-16T13:59:43;2.25;;;1.05;;
41253;SDS011;26987;59.928;30.306;2023-07-16T14:02:11;5.80;;;1.15;;
41253;SDS011;26987;59.928;30.306;2023-07-16T14:04:39;4.25;;;1.42;;
41253;SDS011;26987;59.928;30.306;2023-07-16T14:07:07;5.20;;;1.25;;
41253;SDS011;26987;59.928;30.306;2023-07-16T14:09:34;3.40;;;1.08;;
41253;SDS011;26987;59.928;30.306;2023-07-16T14:12:03;2.42;;;1.05;;
41253;SDS011;26987;59.928;30.306;2023-07-16T14:14:32;4.70;;;1.30;;
41253;SDS011;26987;59.928;30.306;2023-07-16T14:17:00;2.95;;;1.08;;
41253;SDS011;26987;59.928;30.306;2023-07-16T14:19:28;3.30;;;0.93;;
41253;SDS011;26987;59.928;30.306;2023-07-16T14:21:56;5.25;;;1.30;;
41253;SDS011;26987;59.928;30.306;2023-07-16T14:24:24;4.05;;;1.33;;
41253;SDS011;26987;59.928;30.306;2023-07-16T14:26:52;2.95;;;1.40;;
41253;SDS011;26987;59.928;30.306;2023-07-16T14:29:20;4.97;;;1.30;;
41253;SDS011;26987;59.928;30.306;2023-07-16T14:31:49;2.63;;;0.93;;
41253;SDS011;26987;59.928;30.306;2023-07-16T14:34:17;4.03;;;1.00;;
41253;SDS011;26987;59.928;30.306;2023-07-16T14:36:45;3.33;;;1.30;;
41253;SDS011;26987;59.928;30.306;2023-07-16T14:39:13;8.13;;;1.63;;
41253;SDS011;26987;59.928;30.306;2023-07-16T14:41:41;2.80;;;1.15;;